Tamworth, NH (03886)

4:56 AM EDT on September 20, 2014 (GMT -0400)
North Conway | Change Station
CLOSE
Current Station
Airport
Location: North Conway,
Elevation: 495 ft
Nearby Weather Stations

Elev 495 ft 44.02 °N, 71.17 °W | Updated 1 hour ago

Partly Cloudy
Partly Cloudy
65 °F
Feels Like 65 °F
N
15
Wind Variable Wind from NNW

Today
High -- | Low -- °F
--% Chance of Precip.
Yesterday
High -- | Low -- °F
Precip. -- in
6:30 AM 6:46 PM
Waning Crescent, 13% visible
Pressure 29.90 in
Visibility 10.0 miles
Clouds Clear
Dew Point 37 °F
Humidity 35%
Rainfall 0.00 in
Snow Depth Not available.
UV 0 out of 12
Pollen 2.60 out of 12
Ozone Good
Flu Activity Not available.
METAR KCWN 200756Z AUTO 34013KT 10SM CLR 19/03 A3018 RMK AO2 PK WND 31027/14 SLP123 T01850026

More Conditions Fewer Conditions

Pressure 29.90 in
Visibility 10.0 miles
Clouds Clear
Dew Point 37 °F
Humidity 35%
Rainfall 0.00 in
Snow Depth Not available.
UV 0 out of 12
Pollen 2.60 out of 12
Ozone Good
Flu Activity Not available.
METAR KCWN 200756Z AUTO 34013KT 10SM CLR 19/03 A3018 RMK AO2 PK WND 31027/14 SLP123 T01850026

More Conditions Fewer Conditions

10-Day Weather Forecast

Almanac

Astronomy

Sep. 20, 2014 Rise Set
Actual Time 6:30 AM EDT 6:46 PM EDT
Civil Twilight 6:01 AM EDT 7:15 PM EDT
Nautical Twilight 5:27 AM EDT 7:48 PM EDT
Astronomical Twilight 4:52 AM EDT 8:23 PM EDT
Moon 3:00 AM EDT 4:52 PM EDT
Length of Visible Light 13h 13m
Length of Day
12h 16m
Tomorrow will be 3m 0s shorter.
Waning Crescent, 13% of the Moon is Illuminated
Today
Waning Crescent
Sep 24
New
Oct 1
First Quarter
Oct 8
Full
Oct 15
Last Quarter

Today's Extremes

State Highs State Lows

Community

WunderPhotos

Upload Photos

1,754,793 photos uploaded!

WunderBlogs® & News

Nearby

Air Quality

  Air Quality AQ Index Pollutant
Yesterday Good
OZONE
Current Good
OZONE
Saturday Good
PM2.5
Saturday Good
OZONE
Sunday Good
PM2.5
Sunday Good
OZONE
Monday Good
PM2.5
Monday Good
OZONE

Snow Depth

Station Depth Elevation
No new snow has been reported.

Earthquake Activity

City Distance Mag. Time & Date
No recent earthquake activity has been reported nearby.
Minimum magnitude displayed is 2.5.

Coastal Water Temperatures

Place Temperature
No Stations Reporting

Nearby Weather Stations